Honghai — XUBU8 — position and weather

sailwx.info

Track history (hours):
 
Tides and Currents Weather Stations Pressure Air Temp Water Temp Dewpoint Dewpoint Depression Visibility Wind Speed Wind Dir Waves Ship Positions

Honghai

Last reported at 2016-May-25 09:34 UTC. Time now 2016-May-27 18:12 UTC.
Position N 29°29' E 122°28'.

Length 72 m; draft 4 m.

Type: Cargo ship. MMSI: 515501000.

Date/timePositionNaut miles runAvg speedWind from/ knotsBaromVisibWave heightAir tempDewpointWater temp
2016-May-25 09:34N 29°29' E 122°28'  
2016-May-20 01:26N 34°37' E 134°58'7 7.3
2016-May-20 00:33N 34°34' E 135°05'230 6.4
2016-May-18 12:33N 35°06' E 139°42'10 9.6
2016-May-18 11:33N 35°16' E 139°46'9 9.1
2016-May-18 10:33N 35°24' E 139°43'10 9.9
2016-May-18 09:33N 35°30' E 139°53'9 9.0
2016-May-18 08:33N 35°38' E 139°59'3 2.8
2016-May-18 07:28N 35°41' E 139°58'0 0.0
2016-May-18 06:22N 35°41' E 139°58'0 0.0
2016-May-18 05:28N 35°41' E 139°58'0 0.0
2016-May-18 04:22N 35°41' E 139°58'0 0.0
2016-May-18 03:28N 35°41' E 139°58'0 0.0
2016-May-18 02:22N 35°41' E 139°58'0 0.0
2016-May-18 01:28N 35°41' E 139°58'0 0.0
2016-May-18 00:22N 35°41' E 139°58'0 0.0
2016-May-17 23:28N 35°41' E 139°58'0 0.0
2016-May-17 22:04N 35°41' E 139°58'0 0.0
2016-May-17 21:28N 35°41' E 139°58'0 0.0
2016-May-17 20:22N 35°41' E 139°58'0 0.0
2016-May-17 19:28N 35°41' E 139°58'0 0.0
2016-May-17 18:28N 35°41' E 139°58'0 0.0
2016-May-17 17:22N 35°41' E 139°58'0 0.0
2016-May-17 16:16N 35°41' E 139°58'0 0.0
2016-May-17 15:22N 35°41' E 139°58'0 0.0
2016-May-17 14:22N 35°41' E 139°58'0 0.0
2016-May-17 13:22N 35°41' E 139°58'0 0.0
2016-May-17 12:28N 35°41' E 139°58'0 0.0
2016-May-17 11:28N 35°41' E 139°58'0 0.0
2016-May-17 10:28N 35°41' E 139°58'0 0.0
2016-May-17 09:16N 35°41' E 139°58'0 0.0
2016-May-17 08:28N 35°41' E 139°58'0 0.0
2016-May-17 07:34N 35°41' E 139°58'0 0.0
2016-May-17 06:34N 35°41' E 139°58'0 0.0
2016-May-17 05:27N 35°41' E 139°58'0 0.0
2016-May-17 04:27N 35°41' E 139°58'0 0.0
2016-May-17 03:33N 35°41' E 139°58'0 0.0
2016-May-17 02:21N 35°41' E 139°58'0 0.0
2016-May-17 01:33N 35°41' E 139°58'0 0.0
2016-May-17 00:27N 35°41' E 139°58'0 0.0
2016-May-16 23:33N 35°41' E 139°58'0 0.0
2016-May-16 22:33N 35°41' E 139°58'0 0.0
2016-May-16 21:33N 35°41' E 139°58'0 0.0
2016-May-16 20:27N 35°41' E 139°58'0 0.0
2016-May-16 19:21N 35°41' E 139°58'0 0.0
2016-May-16 18:33N 35°41' E 139°58'0 0.0
2016-May-16 17:33N 35°41' E 139°58'0 0.0
2016-May-16 16:33N 35°41' E 139°58'0 0.0
2016-May-16 15:33N 35°41' E 139°58'0 0.0
2016-May-16 14:33N 35°41' E 139°58'0 0.0
2016-May-16 13:33N 35°41' E 139°58'0 0.0
2016-May-16 12:27N 35°41' E 139°58'0 0.0
2016-May-16 11:33N 35°41' E 139°58'0 0.0
2016-May-16 10:33N 35°41' E 139°58'0 0.0
2016-May-16 09:27N 35°41' E 139°58'0 0.0
2016-May-16 08:33N 35°41' E 139°58'0 0.0
2016-May-16 07:15N 35°41' E 139°58'0 0.0
2016-May-16 06:33N 35°41' E 139°58'0 0.0
2016-May-16 05:33N 35°41' E 139°58'0 0.0
2016-May-16 04:33N 35°41' E 139°58'0 0.0
2016-May-16 03:33N 35°41' E 139°58'4 4.2
2016-May-16 02:33N 35°36' E 139°58'1 0.5
2016-May-16 01:14N 35°36' E 139°58'0 0.0
2016-May-16 00:32N 35°36' E 139°58'0 0.0
2016-May-15 23:32N 35°36' E 139°58'0 0.0
2016-May-15 22:26N 35°36' E 139°58'0 0.0
2016-May-15 21:32N 35°36' E 139°58'0 0.0
2016-May-15 20:32N 35°36' E 139°58'0 0.0
2016-May-15 19:26N 35°36' E 139°58'0 0.0
2016-May-15 18:32N 35°36' E 139°58'0 0.0
2016-May-15 17:20N 35°36' E 139°58'0 0.0
2016-May-15 16:26N 35°36' E 139°58'0 0.0
2016-May-15 15:26N 35°36' E 139°58'0 0.0
2016-May-15 14:32N 35°36' E 139°58'0 0.0
2016-May-15 13:32N 35°36' E 139°58'0 0.0
2016-May-15 12:08N 35°36' E 139°58'0 0.0
2016-May-15 11:26N 35°36' E 139°58'  
Track history (hours):
 
Tides and Currents Weather Stations Pressure Air Temp Water Temp Dewpoint Dewpoint Depression Visibility Wind Speed Wind Dir Waves Ship Positions

Honghai

Last reported at 2016-May-25 09:34 UTC. Time now 2016-May-27 18:12 UTC.
Position N 29°29' E 122°28'.

Length 72 m; draft 4 m.

Type: Cargo ship. MMSI: 515501000.

Date/timePositionNaut miles runAvg speedWind from/ knotsBaromVisibWave heightAir tempDewpointWater temp
2016-May-25 09:34N 29°29' E 122°28'  
2016-May-20 01:26N 34°37' E 134°58'7 7.3
2016-May-20 00:33N 34°34' E 135°05'230 6.4
2016-May-18 12:33N 35°06' E 139°42'10 9.6
2016-May-18 11:33N 35°16' E 139°46'9 9.1
2016-May-18 10:33N 35°24' E 139°43'10 9.9
2016-May-18 09:33N 35°30' E 139°53'9 9.0
2016-May-18 08:33N 35°38' E 139°59'3 2.8
2016-May-18 07:28N 35°41' E 139°58'0 0.0
2016-May-18 06:22N 35°41' E 139°58'0 0.0
2016-May-18 05:28N 35°41' E 139°58'0 0.0
2016-May-18 04:22N 35°41' E 139°58'0 0.0
2016-May-18 03:28N 35°41' E 139°58'0 0.0
2016-May-18 02:22N 35°41' E 139°58'0 0.0
2016-May-18 01:28N 35°41' E 139°58'0 0.0
2016-May-18 00:22N 35°41' E 139°58'0 0.0
2016-May-17 23:28N 35°41' E 139°58'0 0.0
2016-May-17 22:04N 35°41' E 139°58'0 0.0
2016-May-17 21:28N 35°41' E 139°58'0 0.0
2016-May-17 20:22N 35°41' E 139°58'0 0.0
2016-May-17 19:28N 35°41' E 139°58'0 0.0
2016-May-17 18:28N 35°41' E 139°58'0 0.0
2016-May-17 17:22N 35°41' E 139°58'0 0.0
2016-May-17 16:16N 35°41' E 139°58'0 0.0
2016-May-17 15:22N 35°41' E 139°58'0 0.0
2016-May-17 14:22N 35°41' E 139°58'0 0.0
2016-May-17 13:22N 35°41' E 139°58'0 0.0
2016-May-17 12:28N 35°41' E 139°58'0 0.0
2016-May-17 11:28N 35°41' E 139°58'0 0.0
2016-May-17 10:28N 35°41' E 139°58'0 0.0
2016-May-17 09:16N 35°41' E 139°58'0 0.0
2016-May-17 08:28N 35°41' E 139°58'0 0.0
2016-May-17 07:34N 35°41' E 139°58'0 0.0
2016-May-17 06:34N 35°41' E 139°58'0 0.0
2016-May-17 05:27N 35°41' E 139°58'0 0.0
2016-May-17 04:27N 35°41' E 139°58'0 0.0
2016-May-17 03:33N 35°41' E 139°58'0 0.0
2016-May-17 02:21N 35°41' E 139°58'0 0.0
2016-May-17 01:33N 35°41' E 139°58'0 0.0
2016-May-17 00:27N 35°41' E 139°58'0 0.0
2016-May-16 23:33N 35°41' E 139°58'0 0.0
2016-May-16 22:33N 35°41' E 139°58'0 0.0
2016-May-16 21:33N 35°41' E 139°58'0 0.0
2016-May-16 20:27N 35°41' E 139°58'0 0.0
2016-May-16 19:21N 35°41' E 139°58'0 0.0
2016-May-16 18:33N 35°41' E 139°58'0 0.0
2016-May-16 17:33N 35°41' E 139°58'0 0.0
2016-May-16 16:33N 35°41' E 139°58'0 0.0
2016-May-16 15:33N 35°41' E 139°58'0 0.0
2016-May-16 14:33N 35°41' E 139°58'0 0.0
2016-May-16 13:33N 35°41' E 139°58'0 0.0
2016-May-16 12:27N 35°41' E 139°58'0 0.0
2016-May-16 11:33N 35°41' E 139°58'0 0.0
2016-May-16 10:33N 35°41' E 139°58'0 0.0
2016-May-16 09:27N 35°41' E 139°58'0 0.0
2016-May-16 08:33N 35°41' E 139°58'0 0.0
2016-May-16 07:15N 35°41' E 139°58'0 0.0
2016-May-16 06:33N 35°41' E 139°58'0 0.0
2016-May-16 05:33N 35°41' E 139°58'0 0.0
2016-May-16 04:33N 35°41' E 139°58'0 0.0
2016-May-16 03:33N 35°41' E 139°58'4 4.2
2016-May-16 02:33N 35°36' E 139°58'1 0.5
2016-May-16 01:14N 35°36' E 139°58'0 0.0
2016-May-16 00:32N 35°36' E 139°58'0 0.0
2016-May-15 23:32N 35°36' E 139°58'0 0.0
2016-May-15 22:26N 35°36' E 139°58'0 0.0
2016-May-15 21:32N 35°36' E 139°58'0 0.0
2016-May-15 20:32N 35°36' E 139°58'0 0.0
2016-May-15 19:26N 35°36' E 139°58'0 0.0
2016-May-15 18:32N 35°36' E 139°58'0 0.0
2016-May-15 17:20N 35°36' E 139°58'0 0.0
2016-May-15 16:26N 35°36' E 139°58'0 0.0
2016-May-15 15:26N 35°36' E 139°58'0 0.0
2016-May-15 14:32N 35°36' E 139°58'0 0.0
2016-May-15 13:32N 35°36' E 139°58'0 0.0
2016-May-15 12:08N 35°36' E 139°58'0 0.0
2016-May-15 11:26N 35°36' E 139°58'  

Dump ship's entire track history